createdAt,value
2023-01-25T00:01:49.534Z,1.80
2023-01-25T00:04:27.440Z,1.80
2023-01-25T00:09:57.549Z,1.90
2023-01-25T00:12:54.449Z,1.90
2023-01-25T00:15:27.771Z,1.90
2023-01-25T00:17:59.570Z,1.80
2023-01-25T00:20:43.110Z,1.80
2023-01-25T00:26:17.568Z,1.80
2023-01-25T00:29:04.021Z,1.80
2023-01-25T00:35:09.542Z,1.80
2023-01-25T00:40:54.484Z,1.90
2023-01-25T00:43:43.918Z,1.90
2023-01-25T00:46:26.339Z,1.90
2023-01-25T00:49:12.226Z,1.90
2023-01-25T00:55:00.903Z,1.80
2023-01-25T00:57:58.603Z,1.80
2023-01-25T01:00:44.699Z,1.70
2023-01-25T01:03:21.190Z,1.70
2023-01-25T01:06:02.454Z,1.80
2023-01-25T01:09:02.447Z,1.70
2023-01-25T01:11:58.295Z,1.80
2023-01-25T01:14:46.408Z,1.90
2023-01-25T01:17:28.533Z,1.80
2023-01-25T01:20:24.740Z,1.80
2023-01-25T01:22:57.171Z,1.90
2023-01-25T01:25:31.102Z,1.90
2023-01-25T01:28:01.003Z,1.80
2023-01-25T01:30:34.615Z,1.80
2023-01-25T01:33:19.249Z,1.90
2023-01-25T01:35:59.259Z,1.80
2023-01-25T01:38:43.412Z,1.80
2023-01-25T01:41:23.409Z,1.80
2023-01-25T01:43:57.006Z,1.90
2023-01-25T01:46:37.007Z,1.80
2023-01-25T01:49:16.847Z,1.80
2023-01-25T01:51:55.731Z,1.70
2023-01-25T01:54:45.335Z,1.70
2023-01-25T01:57:25.708Z,1.70
2023-01-25T02:00:12.577Z,1.80
2023-01-25T02:02:50.420Z,1.80
2023-01-25T02:05:49.657Z,1.80
2023-01-25T02:08:25.089Z,1.80
2023-01-25T02:11:09.809Z,1.80
2023-01-25T02:13:41.487Z,1.70
2023-01-25T02:16:17.862Z,1.90
2023-01-25T02:19:05.975Z,1.90
2023-01-25T02:21:49.527Z,1.90
2023-01-25T02:27:39.578Z,1.70
2023-01-25T02:30:21.709Z,1.80
2023-01-25T02:33:02.638Z,1.80
2023-01-25T02:35:50.046Z,1.80
2023-01-25T02:38:32.526Z,1.70
2023-01-25T02:41:20.530Z,1.70
2023-01-25T02:43:55.416Z,1.80
2023-01-25T02:46:32.305Z,1.80
2023-01-25T02:49:05.330Z,1.80
2023-01-25T02:51:38.608Z,1.80
2023-01-25T02:54:17.849Z,1.80
2023-01-25T02:56:53.009Z,1.80
2023-01-25T02:59:39.797Z,1.80
2023-01-25T03:02:33.692Z,1.80
2023-01-25T03:05:06.039Z,1.80
2023-01-25T03:07:49.497Z,1.80
2023-01-25T03:10:21.668Z,1.70
2023-01-25T03:12:53.814Z,1.70
2023-01-25T03:15:33.851Z,1.60
2023-01-25T03:18:09.847Z,1.60
2023-01-25T03:20:53.378Z,1.70
2023-01-25T03:23:35.733Z,1.70
2023-01-25T03:26:14.767Z,1.60
2023-01-25T03:28:59.017Z,1.60
2023-01-25T03:31:35.864Z,1.70
2023-01-25T03:34:13.649Z,1.70
2023-01-25T03:36:51.934Z,1.70
2023-01-25T03:39:28.939Z,1.80
2023-01-25T03:41:59.570Z,1.90
2023-01-25T03:44:32.206Z,1.90
2023-01-25T03:47:07.162Z,1.90
2023-01-25T03:49:42.481Z,2.00
2023-01-25T03:52:13.308Z,1.90
2023-01-25T03:54:46.158Z,1.80
2023-01-25T03:57:14.704Z,1.80
2023-01-25T03:59:44.997Z,1.70
2023-01-25T04:02:43.826Z,1.70
2023-01-25T04:05:17.377Z,1.80
2023-01-25T04:07:48.845Z,1.80
2023-01-25T04:10:22.029Z,2.00
2023-01-25T04:16:05.219Z,1.60
2023-01-25T04:18:41.540Z,1.50
2023-01-25T04:21:23.283Z,1.70
2023-01-25T04:24:00.175Z,1.80
2023-01-25T04:26:38.333Z,1.90
2023-01-25T04:29:09.295Z,1.90
2023-01-25T04:31:38.490Z,1.90
2023-01-25T04:34:23.199Z,1.80
2023-01-25T04:37:05.138Z,1.70
2023-01-25T04:39:39.958Z,1.70
2023-01-25T04:42:25.505Z,1.70
2023-01-25T04:45:04.093Z,1.80
2023-01-25T04:47:51.227Z,1.90
2023-01-25T04:50:40.289Z,1.90
2023-01-25T04:53:22.267Z,1.90
2023-01-25T04:55:59.405Z,2.00
2023-01-25T04:58:32.063Z,2.00
2023-01-25T05:01:14.477Z,2.10
2023-01-25T05:03:47.092Z,2.00
2023-01-25T05:06:17.105Z,1.90
2023-01-25T05:08:49.838Z,1.80
2023-01-25T05:11:27.240Z,1.80
2023-01-25T05:13:59.136Z,1.80
2023-01-25T05:16:46.784Z,1.90
2023-01-25T05:19:30.429Z,1.80
2023-01-25T05:22:11.735Z,1.70
2023-01-25T05:24:49.181Z,1.70
2023-01-25T05:27:19.777Z,1.80
2023-01-25T05:29:52.304Z,1.80
2023-01-25T05:32:28.211Z,1.70
2023-01-25T05:35:13.831Z,1.70
2023-01-25T05:37:55.758Z,1.80
2023-01-25T05:40:52.130Z,1.70
2023-01-25T05:43:37.980Z,1.70
2023-01-25T05:46:21.453Z,1.70
2023-01-25T05:49:11.108Z,1.60
2023-01-25T05:52:05.823Z,1.70
2023-01-25T05:55:04.878Z,1.70
2023-01-25T05:57:49.749Z,1.70
2023-01-25T06:00:41.567Z,1.70
2023-01-25T06:03:30.885Z,1.80
2023-01-25T06:06:05.334Z,1.70
2023-01-25T06:09:03.404Z,1.80
2023-01-25T06:17:16.443Z,1.80
2023-01-25T06:20:07.938Z,2.00
2023-01-25T06:22:52.752Z,2.00
2023-01-25T06:25:22.080Z,2.00
2023-01-25T06:27:53.291Z,1.90
2023-01-25T06:30:27.271Z,1.90
2023-01-25T06:33:05.215Z,2.00
2023-01-25T06:35:51.566Z,2.00
2023-01-25T06:38:42.922Z,2.00
2023-01-25T06:41:21.024Z,1.90
2023-01-25T06:43:53.319Z,1.90
2023-01-25T06:46:23.996Z,2.00
2023-01-25T06:48:58.192Z,2.00
2023-01-25T06:51:28.875Z,1.90
2023-01-25T06:54:10.375Z,1.80
2023-01-25T06:56:41.331Z,1.70
2023-01-25T06:59:13.719Z,1.60
2023-01-25T07:01:46.056Z,1.80
2023-01-25T07:04:15.970Z,1.60
2023-01-25T07:06:47.454Z,1.70
2023-01-25T07:09:43.832Z,1.80
2023-01-25T07:12:22.810Z,1.90
2023-01-25T07:14:54.967Z,1.90
2023-01-25T07:17:28.235Z,2.00
2023-01-25T07:20:00.863Z,2.00
2023-01-25T07:22:49.207Z,2.00
2023-01-25T07:25:28.971Z,1.90
2023-01-25T07:28:02.724Z,2.00
2023-01-25T07:30:35.661Z,2.00
2023-01-25T07:33:16.715Z,1.90
2023-01-25T07:39:03.384Z,1.70
2023-01-25T07:41:56.426Z,1.90
2023-01-25T07:47:27.148Z,1.70
2023-01-25T07:49:58.469Z,1.60
2023-01-25T07:52:34.621Z,1.60
2023-01-25T07:55:15.998Z,1.70
2023-01-25T07:57:51.893Z,1.80
2023-01-25T08:00:31.115Z,1.80
2023-01-25T08:03:17.543Z,1.70
2023-01-25T08:05:57.374Z,1.70
2023-01-25T08:11:22.814Z,1.70
2023-01-25T08:13:52.348Z,1.70
2023-01-25T08:16:41.010Z,1.80
2023-01-25T08:19:22.652Z,1.90
2023-01-25T08:22:12.751Z,1.90
2023-01-25T08:25:04.792Z,1.90
2023-01-25T08:27:39.863Z,1.80
2023-01-25T08:33:08.732Z,1.90
2023-01-25T08:35:44.903Z,2.00
2023-01-25T08:38:13.407Z,2.00
2023-01-25T08:40:43.226Z,2.00
2023-01-25T08:43:16.610Z,2.20
2023-01-25T08:45:52.228Z,2.10
2023-01-25T08:48:37.713Z,2.10
2023-01-25T08:51:11.888Z,2.10
2023-01-25T08:53:44.437Z,2.30
2023-01-25T08:56:31.108Z,2.30
2023-01-25T08:59:06.851Z,2.30
2023-01-25T09:01:39.733Z,2.30
2023-01-25T09:04:16.933Z,2.20
2023-01-25T09:06:53.703Z,2.10
2023-01-25T09:09:34.509Z,2.20
2023-01-25T09:12:06.033Z,2.30
2023-01-25T09:14:39.192Z,2.20
2023-01-25T09:17:24.533Z,2.30
2023-01-25T09:20:00.579Z,2.30
2023-01-25T09:22:36.930Z,2.40
2023-01-25T09:25:16.313Z,2.40
2023-01-25T09:27:51.645Z,2.30
2023-01-25T09:30:37.353Z,2.20
2023-01-25T09:33:18.436Z,2.00
2023-01-25T09:35:56.073Z,2.00
2023-01-25T09:38:25.384Z,2.10
2023-01-25T09:44:14.915Z,2.20
2023-01-25T09:46:53.018Z,2.20
2023-01-25T09:49:33.656Z,2.30
2023-01-25T09:52:22.093Z,2.30
2023-01-25T09:54:52.853Z,2.30
2023-01-25T09:57:27.917Z,2.30
2023-01-25T10:00:08.439Z,2.20
2023-01-25T10:02:43.209Z,2.10
2023-01-25T10:05:27.211Z,2.10
2023-01-25T10:08:18.280Z,2.20
2023-01-25T10:10:56.644Z,2.30
2023-01-25T10:13:39.699Z,2.30
2023-01-25T10:16:25.044Z,2.30
2023-01-25T10:19:35.226Z,2.20
2023-01-25T10:22:10.631Z,2.30
2023-01-25T10:25:12.341Z,2.40
2023-01-25T10:27:59.469Z,2.40
2023-01-25T10:30:41.020Z,2.60
2023-01-25T10:33:14.544Z,2.60
2023-01-25T10:35:49.789Z,2.60
2023-01-25T10:38:24.680Z,2.60
2023-01-25T10:41:00.688Z,2.60
2023-01-25T10:43:37.601Z,2.60
2023-01-25T10:46:07.650Z,2.40
2023-01-25T10:48:39.079Z,2.40
2023-01-25T10:51:22.188Z,2.20
2023-01-25T10:54:03.431Z,2.30
2023-01-25T10:56:37.583Z,2.20
2023-01-25T10:59:21.875Z,2.30
2023-01-25T11:02:00.439Z,2.30
2023-01-25T11:04:40.057Z,2.40
2023-01-25T11:07:42.817Z,2.50
2023-01-25T11:10:32.102Z,2.40
2023-01-25T11:13:30.431Z,2.50
2023-01-25T11:16:33.173Z,2.60
2023-01-25T11:19:31.986Z,2.50
2023-01-25T11:22:11.106Z,2.50
2023-01-25T11:24:48.198Z,2.40
2023-01-25T11:27:28.516Z,2.50
2023-01-25T11:30:17.948Z,2.50
2023-01-25T11:32:52.715Z,2.50
2023-01-25T11:35:51.452Z,2.60
2023-01-25T11:38:30.032Z,2.50
2023-01-25T11:41:07.224Z,2.50
2023-01-25T11:43:54.768Z,2.60
2023-01-25T11:46:33.635Z,2.40
2023-01-25T11:49:23.503Z,2.30
2023-01-25T11:52:20.918Z,2.40
2023-01-25T11:55:12.238Z,2.40
2023-01-25T11:58:00.333Z,2.50
2023-01-25T12:00:53.567Z,2.50
2023-01-25T12:03:59.086Z,2.50
2023-01-25T12:06:36.163Z,2.40
2023-01-25T12:09:24.838Z,2.20
2023-01-25T12:12:05.946Z,2.20
2023-01-25T12:14:46.518Z,2.30
2023-01-25T12:17:31.230Z,2.40
2023-01-25T12:20:10.556Z,2.60
2023-01-25T12:22:58.349Z,2.60
2023-01-25T12:25:37.416Z,2.40
2023-01-25T12:28:22.360Z,2.40
2023-01-25T12:33:45.890Z,2.50
2023-01-25T12:36:22.941Z,2.30
2023-01-25T12:38:59.487Z,2.40
2023-01-25T12:41:32.642Z,2.60
2023-01-25T12:44:11.527Z,2.60
2023-01-25T12:46:48.257Z,2.50
2023-01-25T12:49:22.572Z,2.60
2023-01-25T12:51:57.184Z,2.40
2023-01-25T12:54:34.325Z,2.30
2023-01-25T12:57:12.683Z,2.40
2023-01-25T12:59:54.736Z,2.40
2023-01-25T13:02:37.023Z,2.30
2023-01-25T13:05:17.250Z,2.30
2023-01-25T13:08:01.921Z,2.30
2023-01-25T13:10:57.200Z,2.40
2023-01-25T13:13:31.998Z,2.50
2023-01-25T13:16:32.560Z,2.60
2023-01-25T13:19:15.696Z,2.50
2023-01-25T13:21:49.941Z,2.60
2023-01-25T13:24:41.396Z,2.60
2023-01-25T13:30:36.391Z,2.50
2023-01-25T13:33:11.764Z,2.60
2023-01-25T13:36:13.256Z,2.60
2023-01-25T13:38:46.647Z,2.60
2023-01-25T13:41:31.402Z,2.60
2023-01-25T13:47:38.332Z,2.40
2023-01-25T13:50:24.814Z,2.30
2023-01-25T13:56:33.111Z,2.50
2023-01-25T13:59:04.331Z,2.50
2023-01-25T14:02:00.475Z,2.50
2023-01-25T14:04:34.993Z,2.50
2023-01-25T14:07:10.838Z,2.80
2023-01-25T14:09:53.800Z,2.60
2023-01-25T14:12:34.772Z,2.60
2023-01-25T14:15:13.983Z,2.60
2023-01-25T14:17:53.513Z,2.60
2023-01-25T14:20:28.570Z,2.60
2023-01-25T14:23:02.780Z,2.50
2023-01-25T14:25:37.796Z,2.50
2023-01-25T14:28:29.811Z,2.40
2023-01-25T14:31:20.666Z,2.40
2023-01-25T14:33:56.419Z,2.60
2023-01-25T14:36:29.251Z,2.60
2023-01-25T14:39:04.975Z,2.70
2023-01-25T14:44:40.164Z,2.50
2023-01-25T14:47:34.016Z,2.50
2023-01-25T14:50:24.361Z,2.40
2023-01-25T14:55:54.144Z,2.50
2023-01-25T14:58:24.131Z,2.50
2023-01-25T15:00:55.772Z,2.50
2023-01-25T15:03:26.930Z,2.40
2023-01-25T15:05:55.847Z,2.50
2023-01-25T15:08:31.417Z,2.40
2023-01-25T15:11:21.299Z,2.40
2023-01-25T15:13:49.932Z,2.40
2023-01-25T15:16:18.114Z,2.40
2023-01-25T15:18:48.345Z,2.30
2023-01-25T15:21:17.390Z,2.30
2023-01-25T15:23:46.211Z,2.30
2023-01-25T15:26:19.632Z,2.50
2023-01-25T15:28:49.727Z,2.50
2023-01-25T15:31:19.113Z,2.40
2023-01-25T15:33:47.352Z,2.40
2023-01-25T15:36:17.108Z,2.40
2023-01-25T15:38:46.247Z,2.40
2023-01-25T15:41:15.215Z,2.40
2023-01-25T15:43:45.075Z,2.30
2023-01-25T15:46:16.560Z,2.20
2023-01-25T15:48:45.708Z,2.30
2023-01-25T15:51:14.574Z,2.50
2023-01-25T15:53:42.861Z,2.30
2023-01-25T15:56:14.244Z,2.30
2023-01-25T15:58:43.357Z,2.30
2023-01-25T16:01:12.896Z,2.30
2023-01-25T16:03:41.807Z,2.20
2023-01-25T16:06:19.589Z,2.20
2023-01-25T16:08:47.652Z,2.20
2023-01-25T16:11:15.651Z,2.30
2023-01-25T16:13:43.977Z,2.20
2023-01-25T16:16:18.424Z,2.10
2023-01-25T16:18:46.561Z,2.10
2023-01-25T16:21:15.068Z,2.00
2023-01-25T16:23:43.833Z,2.10
2023-01-25T16:26:17.277Z,2.10
2023-01-25T16:28:45.631Z,2.10
2023-01-25T16:31:30.233Z,2.10
2023-01-25T16:34:00.306Z,2.10
2023-01-25T16:36:28.554Z,2.10
2023-01-25T16:38:56.744Z,2.20
2023-01-25T16:41:25.128Z,2.20
2023-01-25T16:43:53.913Z,2.20
2023-01-25T16:46:24.230Z,2.20
2023-01-25T16:48:53.438Z,2.30
2023-01-25T16:51:22.396Z,2.20
2023-01-25T16:53:51.600Z,2.20
2023-01-25T16:56:20.593Z,2.20
2023-01-25T16:58:49.380Z,2.30
2023-01-25T17:01:18.428Z,2.30
2023-01-25T17:03:48.046Z,2.30
2023-01-25T17:06:22.835Z,2.40
2023-01-25T17:08:51.449Z,2.50
2023-01-25T17:11:19.979Z,2.20
2023-01-25T17:13:49.302Z,2.20
2023-01-25T17:16:17.512Z,2.30
2023-01-25T17:18:45.674Z,2.30
2023-01-25T17:21:17.182Z,2.10
2023-01-25T17:23:45.668Z,2.10
2023-01-25T17:26:14.991Z,2.10
2023-01-25T17:28:43.777Z,2.20
2023-01-25T17:31:16.689Z,2.20
2023-01-25T17:33:45.558Z,2.20
2023-01-25T17:36:15.272Z,2.30
2023-01-25T17:38:45.502Z,2.10
2023-01-25T17:41:14.800Z,2.10
2023-01-25T17:43:43.073Z,2.20
2023-01-25T17:46:14.550Z,2.20
2023-01-25T17:48:43.269Z,2.10
2023-01-25T17:51:11.334Z,2.00
2023-01-25T17:53:39.730Z,2.10
2023-01-25T17:56:10.405Z,2.10
2023-01-25T17:58:39.270Z,2.10
2023-01-25T18:01:13.984Z,2.20
2023-01-25T18:03:43.506Z,2.20
2023-01-25T18:06:12.173Z,2.20
2023-01-25T18:08:40.743Z,2.20
2023-01-25T18:11:11.041Z,2.20
2023-01-25T18:13:42.671Z,2.10
2023-01-25T18:16:11.238Z,2.10
2023-01-25T18:18:40.368Z,2.20
2023-01-25T18:21:09.906Z,2.20
2023-01-25T18:23:38.869Z,2.20
2023-01-25T18:26:09.363Z,2.20
2023-01-25T18:28:39.200Z,2.20
2023-01-25T18:31:07.668Z,2.10
2023-01-25T18:33:36.072Z,2.00
2023-01-25T18:36:05.641Z,2.10
2023-01-25T18:38:34.170Z,2.00
2023-01-25T18:41:02.287Z,2.20
2023-01-25T18:43:30.793Z,2.10
2023-01-25T18:46:00.511Z,2.10
2023-01-25T18:48:32.046Z,2.00
2023-01-25T18:51:00.864Z,2.00
2023-01-25T18:53:29.014Z,1.90
2023-01-25T18:56:01.002Z,2.00
2023-01-25T18:58:30.229Z,1.90
2023-01-25T19:01:08.172Z,1.90
2023-01-25T19:03:36.929Z,1.90
2023-01-25T19:06:05.436Z,2.00
2023-01-25T19:08:35.727Z,1.90
2023-01-25T19:11:06.230Z,1.90
2023-01-25T19:13:34.890Z,1.90
2023-01-25T19:16:03.936Z,1.90
2023-01-25T19:18:35.527Z,1.90
2023-01-25T19:21:04.427Z,2.00
2023-01-25T19:23:34.524Z,2.00
2023-01-25T19:26:03.580Z,2.00
2023-01-25T19:28:32.655Z,2.00
2023-01-25T19:31:07.272Z,2.10
2023-01-25T19:33:37.087Z,2.10
2023-01-25T19:36:07.192Z,2.10
2023-01-25T19:38:38.883Z,2.00
2023-01-25T19:41:08.127Z,2.00
2023-01-25T19:43:36.429Z,1.90
2023-01-25T19:46:07.978Z,1.80
2023-01-25T19:48:37.793Z,1.90
2023-01-25T19:51:13.010Z,2.00
2023-01-25T19:53:41.747Z,2.00
2023-01-25T19:56:09.730Z,2.10
2023-01-25T19:58:38.549Z,2.10
2023-01-25T20:01:07.484Z,2.00
2023-01-25T20:03:36.029Z,2.00
2023-01-25T20:06:07.157Z,1.90
2023-01-25T20:08:41.840Z,2.00
2023-01-25T20:11:12.500Z,2.00
2023-01-25T20:13:40.973Z,2.00
2023-01-25T20:16:09.604Z,2.00
2023-01-25T20:18:38.124Z,2.10
2023-01-25T20:21:08.829Z,2.10
2023-01-25T20:23:37.761Z,2.20
2023-01-25T20:26:07.212Z,2.10
2023-01-25T20:28:36.482Z,2.10
2023-01-25T20:31:05.467Z,2.10
2023-01-25T20:33:34.436Z,2.00
2023-01-25T20:36:02.747Z,2.00
2023-01-25T20:38:32.668Z,2.10
2023-01-25T20:41:01.106Z,2.00
2023-01-25T20:43:29.829Z,2.00
2023-01-25T20:45:57.968Z,2.10
2023-01-25T20:48:25.996Z,2.10
2023-01-25T20:50:54.515Z,2.10
2023-01-25T20:53:22.688Z,2.10
2023-01-25T20:55:56.942Z,2.10
2023-01-25T20:58:24.993Z,2.10
2023-01-25T21:00:53.265Z,2.10
2023-01-25T21:03:21.825Z,1.90
2023-01-25T21:05:51.001Z,2.00
2023-01-25T21:08:19.728Z,2.00
2023-01-25T21:10:48.919Z,2.10
2023-01-25T21:13:19.337Z,2.10
2023-01-25T21:15:59.102Z,2.10
2023-01-25T21:18:28.447Z,2.20
2023-01-25T21:21:00.751Z,2.20
2023-01-25T21:23:29.847Z,2.20
2023-01-25T21:25:58.232Z,2.20
2023-01-25T21:28:27.678Z,2.20
2023-01-25T21:30:55.759Z,2.10
2023-01-25T21:33:24.522Z,2.10
2023-01-25T21:35:54.998Z,2.20
2023-01-25T21:38:25.083Z,2.10
2023-01-25T21:40:53.470Z,2.10
2023-01-25T21:43:21.488Z,2.10
2023-01-25T21:46:08.732Z,2.10
2023-01-25T21:48:54.486Z,2.10
2023-01-25T21:51:39.765Z,2.00
2023-01-25T21:54:07.807Z,2.10
2023-01-25T21:56:35.934Z,2.00
2023-01-25T21:59:03.991Z,2.20
2023-01-25T22:01:33.807Z,2.20
2023-01-25T22:04:01.842Z,2.00
2023-01-25T22:06:30.087Z,2.00
2023-01-25T22:08:58.542Z,2.10
2023-01-25T22:11:27.240Z,1.90
2023-01-25T22:13:55.576Z,1.90
2023-01-25T22:16:26.915Z,2.00
2023-01-25T22:18:56.449Z,2.00
2023-01-25T22:21:25.556Z,2.00
2023-01-25T22:23:53.754Z,1.90
2023-01-25T22:26:22.680Z,1.80
2023-01-25T22:28:51.615Z,1.80
2023-01-25T22:31:20.885Z,1.90
2023-01-25T22:33:49.283Z,2.00
2023-01-25T22:36:19.757Z,1.80
2023-01-25T22:38:47.909Z,1.80
2023-01-25T22:41:17.005Z,1.80
2023-01-25T22:43:45.251Z,1.90
2023-01-25T22:46:14.358Z,1.90
2023-01-25T22:48:42.583Z,1.90
2023-01-25T22:51:12.220Z,1.90
2023-01-25T22:53:42.485Z,1.80
2023-01-25T22:56:12.073Z,1.80
2023-01-25T22:58:41.329Z,1.80
2023-01-25T23:01:09.955Z,1.80
2023-01-25T23:03:38.714Z,1.70
2023-01-25T23:06:08.482Z,1.70
2023-01-25T23:08:37.927Z,1.70
2023-01-25T23:11:09.111Z,1.80
2023-01-25T23:13:40.123Z,1.90
2023-01-25T23:16:10.742Z,1.80
2023-01-25T23:18:53.599Z,1.80
2023-01-25T23:21:23.514Z,1.80
2023-01-25T23:23:53.327Z,1.50
2023-01-25T23:26:24.156Z,1.80
2023-01-25T23:28:53.601Z,1.80
2023-01-25T23:31:24.771Z,1.70
2023-01-25T23:33:53.931Z,1.70
2023-01-25T23:36:24.310Z,1.70
2023-01-25T23:38:53.592Z,1.80
2023-01-25T23:41:24.633Z,1.80
2023-01-25T23:43:53.428Z,1.70
2023-01-25T23:46:22.271Z,1.70
2023-01-25T23:48:50.902Z,1.70
2023-01-25T23:51:20.003Z,1.70
2023-01-25T23:53:49.297Z,1.80
2023-01-25T23:56:20.476Z,1.80
2023-01-25T23:58:51.068Z,1.70
